Brinsmade, North Dakota
Current Conditions -  °F | °C
As of 5:15 PM on Thursday 27 Nov 2014 (Local Time) from KDVL Reporting Station
Overcast Overcast  
Wind Chill: -10°   Ceiling: 3500
Heat Index:   Visibility: 10mi
Dew Point: -8°   Wind: 14mph
Humidity: 52%   Direction: 160°SSE
Pressure: 30.11"   Gusts: NA
Location:  48.18°N, 99.32°W
Report Text: KDVL 272315Z AUTO 16012KT 10SM BKN035 OVC044 M14/M22 A3011 RMK AO1
Loading
Personal Weather Stations






























Interactive Weather Map New forecast layout! Learn more

10-Day Weather Forecast

Advertisements
Track Severe Weather on mobile